sensor_id;sensor_type;location;lat;lon;timestamp;temperature;humidity
23291;DHT22;11814;44.686;10.842;2023-04-26T00:00:24;11.20;99.90
23291;DHT22;11814;44.686;10.842;2023-04-26T00:02:49;11.20;99.90
23291;DHT22;11814;44.686;10.842;2023-04-26T00:05:15;11.10;99.90
23291;DHT22;11814;44.686;10.842;2023-04-26T00:07:42;11.00;99.90
23291;DHT22;11814;44.686;10.842;2023-04-26T00:10:09;11.00;99.90
23291;DHT22;11814;44.686;10.842;2023-04-26T00:12:35;11.00;99.90
23291;DHT22;11814;44.686;10.842;2023-04-26T00:15:02;11.00;99.90
23291;DHT22;11814;44.686;10.842;2023-04-26T00:17:28;11.00;99.90
23291;DHT22;11814;44.686;10.842;2023-04-26T00:19:54;10.90;99.90
23291;DHT22;11814;44.686;10.842;2023-04-26T00:22:22;10.80;99.90
23291;DHT22;11814;44.686;10.842;2023-04-26T00:24:48;10.70;99.90
23291;DHT22;11814;44.686;10.842;2023-04-26T00:27:13;10.70;99.90
23291;DHT22;11814;44.686;10.842;2023-04-26T00:29:39;10.70;99.90
23291;DHT22;11814;44.686;10.842;2023-04-26T00:32:05;10.70;99.90
23291;DHT22;11814;44.686;10.842;2023-04-26T00:34:32;10.70;99.90
23291;DHT22;11814;44.686;10.842;2023-04-26T00:36:58;10.70;99.90
23291;DHT22;11814;44.686;10.842;2023-04-26T00:39:24;10.70;99.90
23291;DHT22;11814;44.686;10.842;2023-04-26T00:41:50;10.60;99.90
23291;DHT22;11814;44.686;10.842;2023-04-26T00:44:16;10.60;99.90
23291;DHT22;11814;44.686;10.842;2023-04-26T00:46:42;10.60;99.90
23291;DHT22;11814;44.686;10.842;2023-04-26T00:49:14;10.60;99.90
23291;DHT22;11814;44.686;10.842;2023-04-26T00:51:41;10.70;99.90
23291;DHT22;11814;44.686;10.842;2023-04-26T00:54:07;10.70;99.90
23291;DHT22;11814;44.686;10.842;2023-04-26T00:56:34;10.70;99.90
23291;DHT22;11814;44.686;10.842;2023-04-26T00:59:02;10.70;99.90
23291;DHT22;11814;44.686;10.842;2023-04-26T01:01:27;10.70;99.90
23291;DHT22;11814;44.686;10.842;2023-04-26T01:03:54;10.80;99.90
23291;DHT22;11814;44.686;10.842;2023-04-26T01:06:19;10.70;99.90
23291;DHT22;11814;44.686;10.842;2023-04-26T01:08:46;10.70;99.90
23291;DHT22;11814;44.686;10.842;2023-04-26T01:11:12;10.70;99.90
23291;DHT22;11814;44.686;10.842;2023-04-26T01:13:40;10.70;99.90
23291;DHT22;11814;44.686;10.842;2023-04-26T01:16:07;10.70;99.90
23291;DHT22;11814;44.686;10.842;2023-04-26T01:18:33;10.70;99.90
23291;DHT22;11814;44.686;10.842;2023-04-26T01:20:59;10.50;99.90
23291;DHT22;11814;44.686;10.842;2023-04-26T01:23:25;10.50;99.90
23291;DHT22;11814;44.686;10.842;2023-04-26T01:25:51;10.50;99.90
23291;DHT22;11814;44.686;10.842;2023-04-26T01:28:18;10.40;99.90
23291;DHT22;11814;44.686;10.842;2023-04-26T01:30:43;10.40;99.90
23291;DHT22;11814;44.686;10.842;2023-04-26T01:33:09;10.40;99.90
23291;DHT22;11814;44.686;10.842;2023-04-26T01:35:35;10.40;99.90
23291;DHT22;11814;44.686;10.842;2023-04-26T01:38:01;10.30;99.90
23291;DHT22;11814;44.686;10.842;2023-04-26T01:40:28;10.30;99.90
23291;DHT22;11814;44.686;10.842;2023-04-26T01:42:54;10.30;99.90
23291;DHT22;11814;44.686;10.842;2023-04-26T01:45:20;10.30;99.90
23291;DHT22;11814;44.686;10.842;2023-04-26T01:47:46;10.30;99.90
23291;DHT22;11814;44.686;10.842;2023-04-26T01:50:11;10.30;99.90
23291;DHT22;11814;44.686;10.842;2023-04-26T01:52:37;10.30;99.90
23291;DHT22;11814;44.686;10.842;2023-04-26T01:55:03;10.30;99.90
23291;DHT22;11814;44.686;10.842;2023-04-26T01:57:29;10.30;99.90
23291;DHT22;11814;44.686;10.842;2023-04-26T01:59:54;10.20;99.90
23291;DHT22;11814;44.686;10.842;2023-04-26T02:02:21;10.10;99.90
23291;DHT22;11814;44.686;10.842;2023-04-26T02:04:46;10.10;99.90
23291;DHT22;11814;44.686;10.842;2023-04-26T02:07:12;10.10;99.90
23291;DHT22;11814;44.686;10.842;2023-04-26T02:09:38;10.10;99.90
23291;DHT22;11814;44.686;10.842;2023-04-26T02:12:04;10.10;99.90
23291;DHT22;11814;44.686;10.842;2023-04-26T02:14:29;10.10;99.90
23291;DHT22;11814;44.686;10.842;2023-04-26T02:16:55;10.10;99.90
23291;DHT22;11814;44.686;10.842;2023-04-26T02:19:21;10.10;99.90
23291;DHT22;11814;44.686;10.842;2023-04-26T02:21:54;10.10;99.90
23291;DHT22;11814;44.686;10.842;2023-04-26T02:24:21;10.10;99.90
23291;DHT22;11814;44.686;10.842;2023-04-26T02:26:47;10.00;99.90
23291;DHT22;11814;44.686;10.842;2023-04-26T02:29:13;10.00;99.90
23291;DHT22;11814;44.686;10.842;2023-04-26T02:31:39;10.00;99.90
23291;DHT22;11814;44.686;10.842;2023-04-26T02:34:05;10.00;99.90
23291;DHT22;11814;44.686;10.842;2023-04-26T02:36:31;10.00;99.90
23291;DHT22;11814;44.686;10.842;2023-04-26T02:38:58;10.00;99.90
23291;DHT22;11814;44.686;10.842;2023-04-26T02:41:23;10.00;99.90
23291;DHT22;11814;44.686;10.842;2023-04-26T02:43:49;9.90;99.90
23291;DHT22;11814;44.686;10.842;2023-04-26T02:46:16;9.80;99.90
23291;DHT22;11814;44.686;10.842;2023-04-26T02:48:41;9.80;99.90
23291;DHT22;11814;44.686;10.842;2023-04-26T02:51:07;9.80;99.90
23291;DHT22;11814;44.686;10.842;2023-04-26T02:53:33;9.80;99.90
23291;DHT22;11814;44.686;10.842;2023-04-26T02:55:59;9.80;99.90
23291;DHT22;11814;44.686;10.842;2023-04-26T02:58:27;9.80;99.90
23291;DHT22;11814;44.686;10.842;2023-04-26T03:00:53;9.80;99.90
23291;DHT22;11814;44.686;10.842;2023-04-26T03:03:21;9.80;99.90
23291;DHT22;11814;44.686;10.842;2023-04-26T03:05:47;9.70;99.90
23291;DHT22;11814;44.686;10.842;2023-04-26T03:08:12;9.60;99.90
23291;DHT22;11814;44.686;10.842;2023-04-26T03:10:38;9.60;99.90
23291;DHT22;11814;44.686;10.842;2023-04-26T03:13:04;9.50;99.90
23291;DHT22;11814;44.686;10.842;2023-04-26T03:15:30;9.40;99.90
23291;DHT22;11814;44.686;10.842;2023-04-26T03:17:56;9.40;99.90
23291;DHT22;11814;44.686;10.842;2023-04-26T03:20:24;9.40;99.90
23291;DHT22;11814;44.686;10.842;2023-04-26T03:22:50;9.40;99.90
23291;DHT22;11814;44.686;10.842;2023-04-26T03:25:16;9.40;99.90
23291;DHT22;11814;44.686;10.842;2023-04-26T03:27:41;9.30;99.90
23291;DHT22;11814;44.686;10.842;2023-04-26T03:30:08;9.20;99.90
23291;DHT22;11814;44.686;10.842;2023-04-26T03:32:33;9.10;99.90
23291;DHT22;11814;44.686;10.842;2023-04-26T03:34:59;9.10;99.90
23291;DHT22;11814;44.686;10.842;2023-04-26T03:37:25;9.10;99.90
23291;DHT22;11814;44.686;10.842;2023-04-26T03:39:51;9.10;99.90
23291;DHT22;11814;44.686;10.842;2023-04-26T03:42:19;9.10;99.90
23291;DHT22;11814;44.686;10.842;2023-04-26T03:44:45;9.10;99.90
23291;DHT22;11814;44.686;10.842;2023-04-26T03:47:11;9.10;99.90
23291;DHT22;11814;44.686;10.842;2023-04-26T03:49:36;9.10;99.90
23291;DHT22;11814;44.686;10.842;2023-04-26T03:52:02;9.00;99.90
23291;DHT22;11814;44.686;10.842;2023-04-26T03:54:28;9.00;99.90
23291;DHT22;11814;44.686;10.842;2023-04-26T03:56:54;9.00;99.90
23291;DHT22;11814;44.686;10.842;2023-04-26T03:59:20;9.10;99.90
23291;DHT22;11814;44.686;10.842;2023-04-26T04:01:45;9.10;99.90
23291;DHT22;11814;44.686;10.842;2023-04-26T04:04:11;9.10;99.90
23291;DHT22;11814;44.686;10.842;2023-04-26T04:06:37;9.10;99.90
23291;DHT22;11814;44.686;10.842;2023-04-26T04:09:03;9.00;99.90
23291;DHT22;11814;44.686;10.842;2023-04-26T04:11:30;9.00;99.90
23291;DHT22;11814;44.686;10.842;2023-04-26T04:13:57;9.00;99.90
23291;DHT22;11814;44.686;10.842;2023-04-26T04:16:23;9.10;99.90
23291;DHT22;11814;44.686;10.842;2023-04-26T04:18:48;9.10;99.90
23291;DHT22;11814;44.686;10.842;2023-04-26T04:21:14;9.10;99.90
23291;DHT22;11814;44.686;10.842;2023-04-26T04:23:40;9.10;99.90
23291;DHT22;11814;44.686;10.842;2023-04-26T04:26:06;9.00;99.90
23291;DHT22;11814;44.686;10.842;2023-04-26T04:28:32;9.00;99.90
23291;DHT22;11814;44.686;10.842;2023-04-26T04:30:58;9.00;99.90
23291;DHT22;11814;44.686;10.842;2023-04-26T04:33:25;9.00;99.90
23291;DHT22;11814;44.686;10.842;2023-04-26T04:35:53;9.00;99.90
23291;DHT22;11814;44.686;10.842;2023-04-26T04:38:19;9.00;99.90
23291;DHT22;11814;44.686;10.842;2023-04-26T04:40:48;9.00;99.90
23291;DHT22;11814;44.686;10.842;2023-04-26T04:43:14;9.10;99.90
23291;DHT22;11814;44.686;10.842;2023-04-26T04:45:41;9.10;99.90
23291;DHT22;11814;44.686;10.842;2023-04-26T04:48:07;9.10;99.90
23291;DHT22;11814;44.686;10.842;2023-04-26T04:50:34;9.20;99.90
23291;DHT22;11814;44.686;10.842;2023-04-26T04:53:03;9.20;99.90
23291;DHT22;11814;44.686;10.842;2023-04-26T04:55:28;9.30;99.90
23291;DHT22;11814;44.686;10.842;2023-04-26T04:57:54;9.40;99.90
23291;DHT22;11814;44.686;10.842;2023-04-26T05:00:20;9.40;99.90
23291;DHT22;11814;44.686;10.842;2023-04-26T05:02:47;9.50;99.90
23291;DHT22;11814;44.686;10.842;2023-04-26T05:05:12;9.50;99.90
23291;DHT22;11814;44.686;10.842;2023-04-26T05:07:38;9.60;99.90
23291;DHT22;11814;44.686;10.842;2023-04-26T05:10:04;9.60;99.90
23291;DHT22;11814;44.686;10.842;2023-04-26T05:12:30;9.60;99.90
23291;DHT22;11814;44.686;10.842;2023-04-26T05:14:56;9.60;99.90
23291;DHT22;11814;44.686;10.842;2023-04-26T05:17:22;9.70;99.90
23291;DHT22;11814;44.686;10.842;2023-04-26T05:19:47;9.70;99.90
23291;DHT22;11814;44.686;10.842;2023-04-26T05:22:13;9.80;99.90
23291;DHT22;11814;44.686;10.842;2023-04-26T05:24:44;9.80;99.90
23291;DHT22;11814;44.686;10.842;2023-04-26T05:27:11;9.90;99.90
23291;DHT22;11814;44.686;10.842;2023-04-26T05:29:37;10.20;99.90
23291;DHT22;11814;44.686;10.842;2023-04-26T05:32:02;10.70;99.90
23291;DHT22;11814;44.686;10.842;2023-04-26T05:34:28;11.30;99.90
23291;DHT22;11814;44.686;10.842;2023-04-26T05:36:54;11.90;99.90
23291;DHT22;11814;44.686;10.842;2023-04-26T05:39:20;12.30;99.90
23291;DHT22;11814;44.686;10.842;2023-04-26T05:41:45;12.40;99.90
23291;DHT22;11814;44.686;10.842;2023-04-26T05:44:12;12.40;99.90
23291;DHT22;11814;44.686;10.842;2023-04-26T05:46:39;12.50;99.90
23291;DHT22;11814;44.686;10.842;2023-04-26T05:49:04;12.60;99.90
23291;DHT22;11814;44.686;10.842;2023-04-26T05:51:31;12.80;99.90
23291;DHT22;11814;44.686;10.842;2023-04-26T05:53:56;13.00;99.90
23291;DHT22;11814;44.686;10.842;2023-04-26T05:56:23;13.30;99.90
23291;DHT22;11814;44.686;10.842;2023-04-26T05:58:49;13.60;99.90
23291;DHT22;11814;44.686;10.842;2023-04-26T06:01:15;14.20;99.90
23291;DHT22;11814;44.686;10.842;2023-04-26T06:03:41;14.80;99.90
23291;DHT22;11814;44.686;10.842;2023-04-26T06:06:08;15.40;99.90
23291;DHT22;11814;44.686;10.842;2023-04-26T06:08:34;16.10;99.90
23291;DHT22;11814;44.686;10.842;2023-04-26T06:11:00;17.20;99.90
23291;DHT22;11814;44.686;10.842;2023-04-26T06:13:26;18.60;99.10
23291;DHT22;11814;44.686;10.842;2023-04-26T06:15:52;19.80;94.20
23291;DHT22;11814;44.686;10.842;2023-04-26T06:18:18;20.60;88.70
23291;DHT22;11814;44.686;10.842;2023-04-26T06:20:45;20.90;80.70
23291;DHT22;11814;44.686;10.842;2023-04-26T06:23:11;20.60;77.80
23291;DHT22;11814;44.686;10.842;2023-04-26T06:25:37;20.50;77.20
23291;DHT22;11814;44.686;10.842;2023-04-26T06:28:08;20.40;75.80
23291;DHT22;11814;44.686;10.842;2023-04-26T06:30:34;20.30;75.30
23291;DHT22;11814;44.686;10.842;2023-04-26T06:33:00;20.20;74.30
23291;DHT22;11814;44.686;10.842;2023-04-26T06:35:26;19.90;73.20
23291;DHT22;11814;44.686;10.842;2023-04-26T06:37:51;19.40;74.00
23291;DHT22;11814;44.686;10.842;2023-04-26T06:40:17;19.00;75.70
23291;DHT22;11814;44.686;10.842;2023-04-26T06:42:43;18.80;76.90
23291;DHT22;11814;44.686;10.842;2023-04-26T06:45:09;18.70;78.20
23291;DHT22;11814;44.686;10.842;2023-04-26T06:47:35;18.90;79.60
23291;DHT22;11814;44.686;10.842;2023-04-26T06:50:02;19.60;78.50
23291;DHT22;11814;44.686;10.842;2023-04-26T06:52:29;20.10;75.10
23291;DHT22;11814;44.686;10.842;2023-04-26T06:54:55;19.90;73.50
23291;DHT22;11814;44.686;10.842;2023-04-26T06:57:21;19.30;74.20
23291;DHT22;11814;44.686;10.842;2023-04-26T06:59:46;18.80;75.80
23291;DHT22;11814;44.686;10.842;2023-04-26T07:02:12;18.40;77.00
23291;DHT22;11814;44.686;10.842;2023-04-26T07:04:38;18.00;78.40
23291;DHT22;11814;44.686;10.842;2023-04-26T07:07:04;17.60;79.70
23291;DHT22;11814;44.686;10.842;2023-04-26T07:09:29;17.20;81.20
23291;DHT22;11814;44.686;10.842;2023-04-26T07:11:56;17.00;82.70
23291;DHT22;11814;44.686;10.842;2023-04-26T07:14:23;16.80;84.10
23291;DHT22;11814;44.686;10.842;2023-04-26T07:16:48;16.60;85.40
23291;DHT22;11814;44.686;10.842;2023-04-26T07:19:14;16.50;86.90
23291;DHT22;11814;44.686;10.842;2023-04-26T07:21:40;16.60;88.60
23291;DHT22;11814;44.686;10.842;2023-04-26T07:24:06;16.80;89.60
23291;DHT22;11814;44.686;10.842;2023-04-26T07:26:34;16.90;89.80
23291;DHT22;11814;44.686;10.842;2023-04-26T07:29:01;17.00;90.00
23291;DHT22;11814;44.686;10.842;2023-04-26T07:31:27;17.10;90.00
23291;DHT22;11814;44.686;10.842;2023-04-26T07:33:52;17.30;89.90
23291;DHT22;11814;44.686;10.842;2023-04-26T07:36:18;17.30;89.30
23291;DHT22;11814;44.686;10.842;2023-04-26T07:38:44;17.30;89.30
23291;DHT22;11814;44.686;10.842;2023-04-26T07:41:09;17.50;89.20
23291;DHT22;11814;44.686;10.842;2023-04-26T07:43:37;17.70;87.60
23291;DHT22;11814;44.686;10.842;2023-04-26T07:46:03;17.60;87.00
23291;DHT22;11814;44.686;10.842;2023-04-26T07:48:29;17.60;87.50
23291;DHT22;11814;44.686;10.842;2023-04-26T07:50:55;17.70;88.70
23291;DHT22;11814;44.686;10.842;2023-04-26T07:53:21;18.10;88.70
23291;DHT22;11814;44.686;10.842;2023-04-26T07:55:48;18.50;87.50
23291;DHT22;11814;44.686;10.842;2023-04-26T07:58:14;18.90;86.10
23291;DHT22;11814;44.686;10.842;2023-04-26T08:00:40;19.10;83.70
23291;DHT22;11814;44.686;10.842;2023-04-26T08:03:06;19.20;83.00
23291;DHT22;11814;44.686;10.842;2023-04-26T08:05:32;19.30;82.20
23291;DHT22;11814;44.686;10.842;2023-04-26T08:07:58;19.20;81.10
23291;DHT22;11814;44.686;10.842;2023-04-26T08:10:26;19.10;81.00
23291;DHT22;11814;44.686;10.842;2023-04-26T08:12:52;18.90;81.40
23291;DHT22;11814;44.686;10.842;2023-04-26T08:15:18;18.80;81.40
23291;DHT22;11814;44.686;10.842;2023-04-26T08:17:44;18.50;81.10
23291;DHT22;11814;44.686;10.842;2023-04-26T08:20:10;18.50;81.40
23291;DHT22;11814;44.686;10.842;2023-04-26T08:22:35;18.50;81.00
23291;DHT22;11814;44.686;10.842;2023-04-26T08:25:01;18.60;80.90
23291;DHT22;11814;44.686;10.842;2023-04-26T08:27:29;18.70;80.20
23291;DHT22;11814;44.686;10.842;2023-04-26T08:29:56;18.60;79.70
23291;DHT22;11814;44.686;10.842;2023-04-26T08:32:22;18.50;78.80
23291;DHT22;11814;44.686;10.842;2023-04-26T08:34:47;18.40;78.70
23291;DHT22;11814;44.686;10.842;2023-04-26T08:37:13;18.30;79.60
23291;DHT22;11814;44.686;10.842;2023-04-26T08:39:39;18.20;79.50
23291;DHT22;11814;44.686;10.842;2023-04-26T08:42:13;18.00;79.00
23291;DHT22;11814;44.686;10.842;2023-04-26T08:44:41;18.00;79.80
23291;DHT22;11814;44.686;10.842;2023-04-26T08:47:15;18.00;80.60
23291;DHT22;11814;44.686;10.842;2023-04-26T08:49:46;18.00;81.00
23291;DHT22;11814;44.686;10.842;2023-04-26T08:52:18;18.10;80.70
23291;DHT22;11814;44.686;10.842;2023-04-26T08:54:49;18.00;80.70
23291;DHT22;11814;44.686;10.842;2023-04-26T08:57:18;18.00;80.70
23291;DHT22;11814;44.686;10.842;2023-04-26T08:59:45;18.00;80.40
23291;DHT22;11814;44.686;10.842;2023-04-26T09:02:17;18.10;79.70
23291;DHT22;11814;44.686;10.842;2023-04-26T09:04:46;18.10;79.40
23291;DHT22;11814;44.686;10.842;2023-04-26T09:07:30;18.20;80.10
23291;DHT22;11814;44.686;10.842;2023-04-26T09:09:57;18.20;80.40
23291;DHT22;11814;44.686;10.842;2023-04-26T09:12:23;18.30;80.00
23291;DHT22;11814;44.686;10.842;2023-04-26T09:14:50;18.30;78.90
23291;DHT22;11814;44.686;10.842;2023-04-26T09:17:37;18.30;78.80
23291;DHT22;11814;44.686;10.842;2023-04-26T09:20:20;18.40;79.40
23291;DHT22;11814;44.686;10.842;2023-04-26T09:22:47;18.40;79.60
23291;DHT22;11814;44.686;10.842;2023-04-26T09:25:15;18.40;79.90
23291;DHT22;11814;44.686;10.842;2023-04-26T09:27:42;18.50;79.90
23291;DHT22;11814;44.686;10.842;2023-04-26T09:30:16;18.50;80.00
23291;DHT22;11814;44.686;10.842;2023-04-26T09:33:01;18.50;79.80
23291;DHT22;11814;44.686;10.842;2023-04-26T09:35:39;18.30;78.80
23291;DHT22;11814;44.686;10.842;2023-04-26T09:38:12;18.10;79.10
23291;DHT22;11814;44.686;10.842;2023-04-26T09:40:40;18.10;79.70
23291;DHT22;11814;44.686;10.842;2023-04-26T09:43:08;18.30;80.90
23291;DHT22;11814;44.686;10.842;2023-04-26T09:45:55;18.40;81.10
23291;DHT22;11814;44.686;10.842;2023-04-26T09:48:29;18.50;80.20
23291;DHT22;11814;44.686;10.842;2023-04-26T09:53:44;18.80;79.50
23291;DHT22;11814;44.686;10.842;2023-04-26T09:56:12;18.90;78.40
23291;DHT22;11814;44.686;10.842;2023-04-26T10:01:07;19.10;78.20
23291;DHT22;11814;44.686;10.842;2023-04-26T10:03:36;19.20;77.60
23291;DHT22;11814;44.686;10.842;2023-04-26T10:06:03;19.30;76.50
23291;DHT22;11814;44.686;10.842;2023-04-26T10:08:30;19.40;75.30
23291;DHT22;11814;44.686;10.842;2023-04-26T10:10:57;19.50;74.40
23291;DHT22;11814;44.686;10.842;2023-04-26T10:13:24;19.60;74.50
23291;DHT22;11814;44.686;10.842;2023-04-26T10:15:51;19.70;74.90
23291;DHT22;11814;44.686;10.842;2023-04-26T10:18:18;19.80;73.90
23291;DHT22;11814;44.686;10.842;2023-04-26T10:20:47;19.80;73.60
23291;DHT22;11814;44.686;10.842;2023-04-26T10:23:21;19.80;73.40
23291;DHT22;11814;44.686;10.842;2023-04-26T10:25:50;19.90;72.60
23291;DHT22;11814;44.686;10.842;2023-04-26T10:29:01;19.90;72.40
23291;DHT22;11814;44.686;10.842;2023-04-26T10:31:02;19.90;72.50
23291;DHT22;11814;44.686;10.842;2023-04-26T10:33:29;19.90;72.80
23291;DHT22;11814;44.686;10.842;2023-04-26T10:36:03;20.00;72.80
23291;DHT22;11814;44.686;10.842;2023-04-26T10:38:30;20.10;72.60
23291;DHT22;11814;44.686;10.842;2023-04-26T10:41:49;20.00;72.00
23291;DHT22;11814;44.686;10.842;2023-04-26T10:44:40;20.10;72.30
23291;DHT22;11814;44.686;10.842;2023-04-26T10:47:19;20.20;71.20
23291;DHT22;11814;44.686;10.842;2023-04-26T10:49:46;20.10;71.50
23291;DHT22;11814;44.686;10.842;2023-04-26T10:52:18;20.10;71.40
23291;DHT22;11814;44.686;10.842;2023-04-26T10:54:55;20.20;72.30
23291;DHT22;11814;44.686;10.842;2023-04-26T10:57:22;20.30;71.20
23291;DHT22;11814;44.686;10.842;2023-04-26T11:05:37;20.50;69.90
23291;DHT22;11814;44.686;10.842;2023-04-26T11:08:07;20.50;69.90
23291;DHT22;11814;44.686;10.842;2023-04-26T11:10:39;20.60;70.10
23291;DHT22;11814;44.686;10.842;2023-04-26T11:13:06;20.70;70.40
23291;DHT22;11814;44.686;10.842;2023-04-26T11:15:32;20.70;70.90
23291;DHT22;11814;44.686;10.842;2023-04-26T11:18:02;20.70;70.30
23291;DHT22;11814;44.686;10.842;2023-04-26T11:20:30;20.80;70.70
23291;DHT22;11814;44.686;10.842;2023-04-26T11:22:56;20.80;70.40
23291;DHT22;11814;44.686;10.842;2023-04-26T11:25:24;20.80;69.40
23291;DHT22;11814;44.686;10.842;2023-04-26T11:27:55;20.90;69.70
23291;DHT22;11814;44.686;10.842;2023-04-26T11:30:21;20.90;69.20
23291;DHT22;11814;44.686;10.842;2023-04-26T11:32:46;20.90;69.20
23291;DHT22;11814;44.686;10.842;2023-04-26T11:35:13;20.90;69.10
23291;DHT22;11814;44.686;10.842;2023-04-26T11:37:39;21.00;69.20
23291;DHT22;11814;44.686;10.842;2023-04-26T11:40:08;21.00;68.30
23291;DHT22;11814;44.686;10.842;2023-04-26T11:42:34;21.00;68.20
23291;DHT22;11814;44.686;10.842;2023-04-26T11:45:02;21.00;68.10
23291;DHT22;11814;44.686;10.842;2023-04-26T11:47:32;21.00;67.30
23291;DHT22;11814;44.686;10.842;2023-04-26T11:49:58;20.90;67.30
23291;DHT22;11814;44.686;10.842;2023-04-26T11:52:25;20.90;67.30
23291;DHT22;11814;44.686;10.842;2023-04-26T11:55:03;20.90;67.30
23291;DHT22;11814;44.686;10.842;2023-04-26T11:57:32;21.00;67.40
23291;DHT22;11814;44.686;10.842;2023-04-26T12:00:11;21.10;67.20
23291;DHT22;11814;44.686;10.842;2023-04-26T12:02:48;21.10;66.90
23291;DHT22;11814;44.686;10.842;2023-04-26T12:07:49;21.00;66.40
23291;DHT22;11814;44.686;10.842;2023-04-26T12:10:18;21.10;66.70
23291;DHT22;11814;44.686;10.842;2023-04-26T12:12:47;21.10;66.90
23291;DHT22;11814;44.686;10.842;2023-04-26T12:15:14;21.20;66.90
23291;DHT22;11814;44.686;10.842;2023-04-26T12:17:40;21.20;66.40
23291;DHT22;11814;44.686;10.842;2023-04-26T12:20:10;21.30;65.70
23291;DHT22;11814;44.686;10.842;2023-04-26T12:22:36;21.20;65.30
23291;DHT22;11814;44.686;10.842;2023-04-26T12:25:06;21.30;65.30
23291;DHT22;11814;44.686;10.842;2023-04-26T12:27:32;21.30;64.90
23291;DHT22;11814;44.686;10.842;2023-04-26T12:29:58;21.30;64.20
23291;DHT22;11814;44.686;10.842;2023-04-26T12:32:24;21.30;63.90
23291;DHT22;11814;44.686;10.842;2023-04-26T12:34:50;21.30;63.60
23291;DHT22;11814;44.686;10.842;2023-04-26T12:37:16;21.40;63.60
23291;DHT22;11814;44.686;10.842;2023-04-26T12:39:42;21.40;63.00
23291;DHT22;11814;44.686;10.842;2023-04-26T12:42:09;21.40;62.20
23291;DHT22;11814;44.686;10.842;2023-04-26T12:44:34;21.50;61.60
23291;DHT22;11814;44.686;10.842;2023-04-26T12:47:01;21.50;61.10
23291;DHT22;11814;44.686;10.842;2023-04-26T12:49:26;21.50;61.00
23291;DHT22;11814;44.686;10.842;2023-04-26T12:51:54;21.50;61.20
23291;DHT22;11814;44.686;10.842;2023-04-26T12:54:19;21.50;61.00
23291;DHT22;11814;44.686;10.842;2023-04-26T12:56:45;21.60;60.50
23291;DHT22;11814;44.686;10.842;2023-04-26T12:59:12;21.60;60.00
23291;DHT22;11814;44.686;10.842;2023-04-26T13:01:38;21.60;60.00
23291;DHT22;11814;44.686;10.842;2023-04-26T13:04:04;21.60;59.90
23291;DHT22;11814;44.686;10.842;2023-04-26T13:06:30;21.70;59.60
23291;DHT22;11814;44.686;10.842;2023-04-26T13:08:56;21.70;58.70
23291;DHT22;11814;44.686;10.842;2023-04-26T13:11:22;21.70;58.00
23291;DHT22;11814;44.686;10.842;2023-04-26T13:13:47;21.80;58.20
23291;DHT22;11814;44.686;10.842;2023-04-26T13:16:14;21.80;58.20
23291;DHT22;11814;44.686;10.842;2023-04-26T13:18:40;21.90;58.90
23291;DHT22;11814;44.686;10.842;2023-04-26T13:21:06;21.90;58.90
23291;DHT22;11814;44.686;10.842;2023-04-26T13:23:32;21.90;58.70
23291;DHT22;11814;44.686;10.842;2023-04-26T13:25:57;22.00;59.30
23291;DHT22;11814;44.686;10.842;2023-04-26T13:28:23;22.00;59.30
23291;DHT22;11814;44.686;10.842;2023-04-26T13:30:49;21.90;59.10
23291;DHT22;11814;44.686;10.842;2023-04-26T13:33:14;21.90;59.20
23291;DHT22;11814;44.686;10.842;2023-04-26T13:35:40;22.00;59.30
23291;DHT22;11814;44.686;10.842;2023-04-26T13:38:06;22.00;59.00
23291;DHT22;11814;44.686;10.842;2023-04-26T13:40:32;22.00;58.80
23291;DHT22;11814;44.686;10.842;2023-04-26T13:42:57;22.10;58.00
23291;DHT22;11814;44.686;10.842;2023-04-26T13:45:23;22.00;57.10
23291;DHT22;11814;44.686;10.842;2023-04-26T13:47:49;22.10;56.60
23291;DHT22;11814;44.686;10.842;2023-04-26T13:50:15;22.10;55.50
23291;DHT22;11814;44.686;10.842;2023-04-26T13:52:41;22.10;54.90
23291;DHT22;11814;44.686;10.842;2023-04-26T13:55:07;22.10;54.50
23291;DHT22;11814;44.686;10.842;2023-04-26T13:57:33;22.10;54.40
23291;DHT22;11814;44.686;10.842;2023-04-26T13:59:58;22.10;54.10
23291;DHT22;11814;44.686;10.842;2023-04-26T14:02:24;22.20;53.80
23291;DHT22;11814;44.686;10.842;2023-04-26T14:04:50;22.20;53.80
23291;DHT22;11814;44.686;10.842;2023-04-26T14:07:17;22.10;54.20
23291;DHT22;11814;44.686;10.842;2023-04-26T14:09:42;22.20;54.50
23291;DHT22;11814;44.686;10.842;2023-04-26T14:12:08;22.30;54.60
23291;DHT22;11814;44.686;10.842;2023-04-26T14:14:35;22.40;55.00
23291;DHT22;11814;44.686;10.842;2023-04-26T14:17:00;22.50;55.30
23291;DHT22;11814;44.686;10.842;2023-04-26T14:19:26;22.50;53.40
23291;DHT22;11814;44.686;10.842;2023-04-26T14:21:52;22.50;51.80
23291;DHT22;11814;44.686;10.842;2023-04-26T14:24:17;22.50;51.00
23291;DHT22;11814;44.686;10.842;2023-04-26T14:26:43;22.40;50.50
23291;DHT22;11814;44.686;10.842;2023-04-26T14:29:09;22.40;50.50
23291;DHT22;11814;44.686;10.842;2023-04-26T14:31:35;22.40;50.80
23291;DHT22;11814;44.686;10.842;2023-04-26T14:34:00;22.50;50.90
23291;DHT22;11814;44.686;10.842;2023-04-26T14:36:26;22.50;51.80
23291;DHT22;11814;44.686;10.842;2023-04-26T14:38:52;22.50;53.30
23291;DHT22;11814;44.686;10.842;2023-04-26T14:41:18;22.40;53.80
23291;DHT22;11814;44.686;10.842;2023-04-26T14:43:47;22.40;54.20
23291;DHT22;11814;44.686;10.842;2023-04-26T14:46:14;22.30;53.80
23291;DHT22;11814;44.686;10.842;2023-04-26T14:48:40;22.40;53.80
23291;DHT22;11814;44.686;10.842;2023-04-26T14:51:08;22.50;54.50
23291;DHT22;11814;44.686;10.842;2023-04-26T14:53:33;22.50;54.90
23291;DHT22;11814;44.686;10.842;2023-04-26T14:56:00;22.50;54.50
23291;DHT22;11814;44.686;10.842;2023-04-26T14:58:26;22.50;54.90
23291;DHT22;11814;44.686;10.842;2023-04-26T15:00:52;22.50;55.40
23291;DHT22;11814;44.686;10.842;2023-04-26T15:03:18;22.60;54.70
23291;DHT22;11814;44.686;10.842;2023-04-26T15:05:45;22.60;53.90
23291;DHT22;11814;44.686;10.842;2023-04-26T15:08:11;22.60;53.80
23291;DHT22;11814;44.686;10.842;2023-04-26T15:10:36;22.60;53.30
23291;DHT22;11814;44.686;10.842;2023-04-26T15:13:02;22.60;53.10
23291;DHT22;11814;44.686;10.842;2023-04-26T15:15:28;22.50;53.20
23291;DHT22;11814;44.686;10.842;2023-04-26T15:17:54;22.40;53.30
23291;DHT22;11814;44.686;10.842;2023-04-26T15:20:19;22.30;53.40
23291;DHT22;11814;44.686;10.842;2023-04-26T15:22:45;22.20;53.20
23291;DHT22;11814;44.686;10.842;2023-04-26T15:25:11;22.00;53.20
23291;DHT22;11814;44.686;10.842;2023-04-26T15:27:37;21.90;53.50
23291;DHT22;11814;44.686;10.842;2023-04-26T15:30:04;21.90;53.70